Time;durP1;ratioP1;P1;durP2;ratioP2;P2;SDS_P1;SDS_P2;PMS_P1;PMS_P2;Temp;Humidity;BMP_temperature;BMP_pressure;BME280_temperature;BME280_humidity;BME280_pressure;Samples;Min_cycle;Max_cycle;Signal;HPM_P1;HPM_P2
2024/04/13 00:00:55;;;;;;;137.33;106.07;;;;;12.90;98034.00;;;;5422488;26;20636;-82
2024/04/13 00:03:46;;;;;;;138.63;103.50;;;;;12.70;98031.00;;;;5417639;26;20284;-83
2024/04/13 00:06:37;;;;;;;142.13;104.90;;;;;12.90;98023.00;;;;5430960;26;20292;-85
2024/04/13 00:09:29;;;;;;;144.93;112.73;;;;;12.80;98026.00;;;;5438276;26;20363;-85
2024/04/13 00:12:17;;;;;;;136.40;109.23;;;;;12.80;98032.00;;;;5424916;26;20240;-85
2024/04/13 00:15:08;;;;;;;163.67;104.03;;;;;12.70;98014.00;;;;5417986;26;20237;-85
2024/04/13 00:17:58;;;;;;;156.83;105.80;;;;;13.00;98021.00;;;;5432583;26;20308;-85
2024/04/13 00:20:49;;;;;;;162.33;108.10;;;;;12.70;98015.00;;;;5436371;26;20285;-85
2024/04/13 00:23:39;;;;;;;146.70;107.23;;;;;12.20;98009.00;;;;5419904;26;20825;-85
2024/04/13 00:26:32;;;;;;;137.63;101.03;;;;;12.60;98011.00;;;;5422207;26;20241;-85
2024/04/13 00:29:20;;;;;;;127.93;100.77;;;;;12.90;98013.00;;;;5422631;26;20299;-84
2024/04/13 00:32:13;;;;;;;138.87;102.30;;;;;13.10;98010.00;;;;5416445;26;20237;-85
2024/04/13 00:35:04;;;;;;;152.13;103.03;;;;;12.90;98023.00;;;;5423584;26;20365;-84
2024/04/13 00:37:55;;;;;;;166.80;107.20;;;;;12.30;98014.00;;;;5427960;26;20302;-85
2024/04/13 00:40:46;;;;;;;157.77;107.63;;;;;12.00;98012.00;;;;5411893;26;20788;-85
2024/04/13 00:43:37;;;;;;;345.83;226.27;;;;;12.00;98014.00;;;;5431001;26;20738;-84
2024/04/13 00:46:26;;;;;;;198.63;138.47;;;;;12.80;98012.00;;;;5423667;26;20281;-84
2024/04/13 00:49:19;;;;;;;183.30;126.70;;;;;12.90;98015.00;;;;5416578;26;20289;-84
2024/04/13 00:52:13;;;;;;;155.50;114.23;;;;;12.60;98001.00;;;;5427391;26;20241;-85
2024/04/13 00:55:02;;;;;;;141.87;103.33;;;;;13.10;98013.00;;;;5423958;26;20297;-84
2024/04/13 00:57:57;;;;;;;153.50;109.87;;;;;13.20;98011.00;;;;5430236;26;20245;-85
2024/04/13 01:00:45;;;;;;;163.17;110.37;;;;;12.80;98002.00;;;;5430102;26;20230;-85
2024/04/13 01:03:38;;;;;;;157.57;106.03;;;;;12.50;98006.00;;;;5413418;26;20340;-85
2024/04/13 01:06:28;;;;;;;159.53;112.37;;;;;12.10;97991.00;;;;5425830;26;20304;-85
2024/04/13 01:09:22;;;;;;;147.83;106.87;;;;;11.90;98001.00;;;;5424079;26;20275;-85
2024/04/13 01:12:11;;;;;;;144.63;102.67;;;;;12.00;97991.00;;;;5436636;26;20304;-84
2024/04/13 01:15:05;;;;;;;170.60;104.87;;;;;12.10;97994.00;;;;5428249;26;20304;-85
2024/04/13 01:17:54;;;;;;;152.53;99.80;;;;;12.20;97986.00;;;;5434109;26;20241;-84
2024/04/13 01:20:45;;;;;;;163.67;105.97;;;;;11.60;97986.00;;;;5428517;26;20232;-85
2024/04/13 01:23:38;;;;;;;167.60;103.93;;;;;11.60;97989.00;;;;5434603;26;20296;-85
2024/04/13 01:26:37;;;;;;;205.00;109.97;;;;;11.80;97985.00;;;;5420305;26;20282;-84
2024/04/13 01:29:28;;;;;;;201.90;111.03;;;;;12.00;97992.00;;;;5424213;26;20678;-84
2024/04/13 01:32:19;;;;;;;212.80;110.83;;;;;12.10;97987.00;;;;5421937;26;20301;-85
2024/04/13 01:35:08;;;;;;;219.33;109.50;;;;;12.30;97992.00;;;;5426528;26;20297;-85
2024/04/13 01:37:59;;;;;;;231.13;114.30;;;;;12.40;97996.00;;;;5422356;26;20279;-85
2024/04/13 01:40:47;;;;;;;244.37;114.13;;;;;12.30;97986.00;;;;5416545;26;20237;-85
2024/04/13 01:43:41;;;;;;;258.03;114.00;;;;;11.80;97974.00;;;;5424442;26;20299;-84
2024/04/13 01:46:29;;;;;;;262.23;111.90;;;;;11.40;97980.00;;;;5419730;26;20325;-83
2024/04/13 01:49:20;;;;;;;299.00;121.65;;;;;11.50;97985.00;;;;5421673;26;20267;-84
2024/04/13 01:52:09;;;;;;;343.50;103.87;;;;;11.70;97983.00;;;;5413950;26;20280;-85
2024/04/13 01:55:00;;;;;;;341.87;107.33;;;;;11.50;97977.00;;;;5418874;26;20279;-85
2024/04/13 01:57:48;;;;;;;339.27;107.33;;;;;11.90;97983.00;;;;5425445;26;21229;-85
2024/04/13 02:00:42;;;;;;;342.00;105.33;;;;;12.00;97983.00;;;;5430282;26;20273;-84
2024/04/13 02:03:31;;;;;;;347.07;108.90;;;;;12.00;97981.00;;;;5425792;26;20296;-85
2024/04/13 02:06:21;;;;;;;351.10;106.17;;;;;11.40;97976.00;;;;5424919;26;20368;-85
2024/04/13 02:09:13;;;;;;;335.20;113.10;;;;;11.50;97969.00;;;;5417102;26;20306;-84
2024/04/13 02:12:04;;;;;;;336.50;122.00;;;;;11.80;97979.00;;;;5423356;26;20225;-85
2024/04/13 02:14:52;;;;;;;318.77;106.60;;;;;12.10;97973.00;;;;5416173;26;20735;-85
2024/04/13 02:17:47;;;;;;;327.97;114.20;;;;;12.10;97975.00;;;;5422507;26;20293;-85
2024/04/13 02:20:35;;;;;;;351.97;149.37;;;;;12.30;97979.00;;;;5420847;26;20449;-85
2024/04/13 02:23:26;;;;;;;319.70;119.83;;;;;11.70;97972.00;;;;5415105;26;20309;-84
2024/04/13 02:26:14;;;;;;;311.83;109.80;;;;;11.80;97969.00;;;;5424171;26;20568;-84
2024/04/13 02:29:06;;;;;;;331.50;122.33;;;;;11.70;97978.00;;;;5426317;26;20612;-84
2024/04/13 02:31:54;;;;;;;242.93;114.60;;;;;11.40;97976.00;;;;5433355;26;20284;-85
2024/04/13 02:34:48;;;;;;;250.50;109.40;;;;;11.20;97970.00;;;;5436783;26;20229;-85
2024/04/13 02:37:36;;;;;;;274.97;112.50;;;;;11.50;97960.00;;;;5418229;26;20352;-85
2024/04/13 02:40:27;;;;;;;311.80;121.57;;;;;10.80;97960.00;;;;5425854;26;20305;-87
2024/04/13 02:43:16;;;;;;;349.77;163.10;;;;;10.30;97962.00;;;;5424809;26;20838;-85
2024/04/13 02:46:08;;;;;;;251.67;110.33;;;;;10.80;97966.00;;;;5421397;26;20269;-84
2024/04/13 02:48:56;;;;;;;279.63;109.53;;;;;11.20;97959.00;;;;5414884;26;20639;-84
2024/04/13 02:51:50;;;;;;;283.73;119.30;;;;;11.00;97968.00;;;;5421218;26;20761;-85
2024/04/13 02:54:38;;;;;;;153.83;96.90;;;;;10.90;97961.00;;;;5427314;26;20241;-85
2024/04/13 02:57:29;;;;;;;156.33;97.00;;;;;11.40;97967.00;;;;5426366;26;20290;-84
2024/04/13 03:00:18;;;;;;;128.97;85.23;;;;;11.60;97959.00;;;;5435604;26;20645;-85
2024/04/13 03:03:09;;;;;;;113.77;84.13;;;;;11.50;97968.00;;;;5426652;26;20294;-85
2024/04/13 03:05:58;;;;;;;122.20;90.53;;;;;10.90;97968.00;;;;5429383;26;20241;-84
2024/04/13 03:08:53;;;;;;;120.00;87.50;;;;;10.10;97959.00;;;;5423719;26;20275;-85
2024/04/13 03:11:41;;;;;;;153.47;93.73;;;;;10.20;97964.00;;;;5421390;26;20298;-85
2024/04/13 03:14:32;;;;;;;275.73;112.63;;;;;10.50;97967.00;;;;5432029;26;20769;-85
2024/04/13 03:17:21;;;;;;;282.83;133.17;;;;;10.70;97961.00;;;;5435072;26;20233;-85
2024/04/13 03:20:12;;;;;;;221.63;101.70;;;;;10.60;97974.00;;;;5419818;26;20234;-85
2024/04/13 03:23:01;;;;;;;257.10;122.97;;;;;10.30;97972.00;;;;5417469;26;20292;-86
2024/04/13 03:25:54;;;;;;;185.27;93.10;;;;;10.50;97972.00;;;;5428285;26;20306;-85
2024/04/13 03:28:43;;;;;;;192.23;95.90;;;;;11.10;97973.00;;;;5423176;26;20293;-85
2024/04/13 03:31:34;;;;;;;192.67;96.80;;;;;10.80;97967.00;;;;5427467;26;20698;-85
2024/04/13 03:34:23;;;;;;;193.70;98.90;;;;;10.30;97962.00;;;;5428824;26;20282;-86
2024/04/13 03:37:14;;;;;;;221.77;104.47;;;;;10.20;97956.00;;;;5422435;26;20309;-84
2024/04/13 03:40:06;;;;;;;195.00;98.33;;;;;10.10;97957.00;;;;5444900;26;20245;-86
2024/04/13 03:43:00;;;;;;;196.43;97.13;;;;;9.90;97963.00;;;;5427135;26;20237;-86
2024/04/13 03:45:53;;;;;;;200.60;99.27;;;;;10.00;97967.00;;;;5420518;26;20593;-84
2024/04/13 03:48:44;;;;;;;211.27;97.33;;;;;9.60;97954.00;;;;5440693;26;20226;-87
2024/04/13 03:51:32;;;;;;;220.97;96.93;;;;;9.60;97961.00;;;;5428707;26;20280;-85
2024/04/13 03:54:23;;;;;;;258.03;107.80;;;;;10.20;97962.00;;;;5425534;26;20309;-84
2024/04/13 03:57:12;;;;;;;340.07;122.97;;;;;10.20;97955.00;;;;5435518;26;20237;-85
2024/04/13 04:00:06;;;;;;;223.27;107.93;;;;;10.10;97957.00;;;;5426942;26;20233;-85
2024/04/13 04:02:56;;;;;;;155.43;86.00;;;;;10.60;97965.00;;;;5429851;26;20289;-84
2024/04/13 04:05:49;;;;;;;157.80;87.90;;;;;10.70;97965.00;;;;5415729;26;20312;-85
2024/04/13 04:08:40;;;;;;;153.50;86.80;;;;;10.20;97963.00;;;;5418043;26;20758;-86
2024/04/13 04:11:31;;;;;;;179.03;100.57;;;;;9.80;97964.00;;;;5429810;26;20316;-85
2024/04/13 04:14:21;;;;;;;176.70;96.10;;;;;10.10;97965.00;;;;5425421;26;20263;-86
2024/04/13 04:17:14;;;;;;;174.63;94.00;;;;;9.80;97971.00;;;;5421372;26;20271;-85
2024/04/13 04:20:03;;;;;;;149.83;86.03;;;;;9.50;97971.00;;;;5421840;26;20675;-86
2024/04/13 04:22:54;;;;;;;162.20;88.33;;;;;9.40;97972.00;;;;5430666;26;20313;-86
2024/04/13 04:25:43;;;;;;;201.50;97.00;;;;;9.90;97971.00;;;;5433165;26;20238;-85
2024/04/13 04:28:34;;;;;;;198.93;95.80;;;;;10.60;97969.00;;;;5415180;26;20286;-85
2024/04/13 04:31:22;;;;;;;209.30;100.10;;;;;10.60;97966.00;;;;5430529;26;20630;-85
2024/04/13 04:34:16;;;;;;;202.47;96.70;;;;;10.70;97966.00;;;;5426429;26;20229;-85
2024/04/13 04:37:04;;;;;;;201.90;99.83;;;;;10.40;97978.00;;;;5441346;26;20233;-86
2024/04/13 04:39:55;;;;;;;203.93;98.67;;;;;9.60;97980.00;;;;5441332;26;20295;-86
2024/04/13 04:42:43;;;;;;;192.30;94.37;;;;;9.60;97977.00;;;;5443160;26;20276;-87
2024/04/13 04:45:36;;;;;;;199.50;96.90;;;;;10.10;97990.00;;;;5431643;26;20294;-86
2024/04/13 04:48:25;;;;;;;224.50;105.67;;;;;10.30;97996.00;;;;5431407;26;20229;-85
2024/04/13 04:51:18;;;;;;;240.63;100.13;;;;;11.00;97992.00;;;;5426033;26;20280;-85
2024/04/13 04:54:08;;;;;;;265.33;108.07;;;;;11.10;97988.00;;;;5422151;26;20280;-85
2024/04/13 04:56:59;;;;;;;219.87;103.80;;;;;11.50;97998.00;;;;5427534;26;20284;-85
2024/04/13 04:59:47;;;;;;;220.13;101.37;;;;;11.00;98000.00;;;;5422226;26;20289;-85
2024/04/13 05:02:38;;;;;;;214.73;101.53;;;;;10.10;97993.00;;;;5431352;26;20234;-85
2024/04/13 05:05:29;;;;;;;221.30;107.20;;;;;9.90;97998.00;;;;5420000;26;20304;-87
2024/04/13 05:08:20;;;;;;;223.60;106.00;;;;;10.30;97999.00;;;;5429018;26;20232;-86
2024/04/13 05:11:11;;;;;;;219.03;102.50;;;;;9.60;98001.00;;;;5424062;26;20333;-86
2024/04/13 05:13:59;;;;;;;252.93;99.47;;;;;9.80;98004.00;;;;5426919;26;20276;-86
2024/04/13 05:16:50;;;;;;;321.00;108.80;;;;;10.10;98000.00;;;;5424160;26;20293;-86
2024/04/13 05:19:38;;;;;;;288.53;98.67;;;;;10.70;98002.00;;;;5422118;26;20267;-87
2024/04/13 05:22:29;;;;;;;331.67;125.60;;;;;10.20;98002.00;;;;5425547;26;20237;-86
2024/04/13 05:25:20;;;;;;;296.17;108.40;;;;;10.70;98006.00;;;;5423667;26;20238;-86
2024/04/13 05:28:11;;;;;;;325.53;105.23;;;;;11.20;98017.00;;;;5433750;26;20283;-86
2024/04/13 05:31:08;;;;;;;291.67;102.90;;;;;11.10;98012.00;;;;5426939;26;20789;-86
2024/04/13 05:33:57;;;;;;;295.73;102.83;;;;;11.10;98013.00;;;;5428926;26;20304;-86
2024/04/13 05:36:48;;;;;;;310.13;104.07;;;;;10.90;98014.00;;;;5418953;26;20283;-86
2024/04/13 05:39:37;;;;;;;362.40;139.67;;;;;10.90;98013.00;;;;5439024;26;20270;-87
2024/04/13 05:42:31;;;;;;;359.07;131.23;;;;;11.30;98026.00;;;;5427620;26;20642;-87
2024/04/13 05:45:19;;;;;;;321.53;115.90;;;;;11.20;98038.00;;;;5434044;26;20289;-86
2024/04/13 05:48:11;;;;;;;257.63;106.23;;;;;11.40;98033.00;;;;5431633;26;20284;-86
2024/04/13 05:50:59;;;;;;;245.83;105.87;;;;;11.70;98034.00;;;;5437025;26;20317;-86
2024/04/13 05:53:51;;;;;;;243.10;110.20;;;;;11.80;98030.00;;;;5428480;26;20229;-86
2024/04/13 05:56:39;;;;;;;253.10;112.73;;;;;12.10;98031.00;;;;5434032;26;20289;-86
2024/04/13 05:59:33;;;;;;;246.00;116.27;;;;;12.30;98030.00;;;;5423599;26;20294;-86
2024/04/13 06:02:25;;;;;;;248.80;118.27;;;;;12.40;98022.00;;;;5423277;26;20287;-86
2024/04/13 06:05:17;;;;;;;243.70;119.80;;;;;12.70;98033.00;;;;5429210;26;20236;-86
2024/04/13 06:08:06;;;;;;;241.67;117.07;;;;;12.30;98026.00;;;;5419782;26;20241;-86
2024/04/13 06:10:57;;;;;;;249.97;123.97;;;;;12.20;98024.00;;;;5416186;26;20653;-86
2024/04/13 06:13:48;;;;;;;245.40;120.97;;;;;12.20;98024.00;;;;5438265;26;20234;-85
2024/04/13 06:16:40;;;;;;;233.47;120.63;;;;;12.60;98027.00;;;;5424288;26;20240;-86
2024/04/13 06:19:31;;;;;;;251.93;130.20;;;;;13.00;98025.00;;;;5435677;26;20757;-86
2024/04/13 06:22:23;;;;;;;263.20;135.57;;;;;13.20;98026.00;;;;5430394;26;20230;-86
2024/04/13 06:25:16;;;;;;;251.13;128.47;;;;;14.10;98034.00;;;;5422902;26;20293;-86
2024/04/13 06:28:05;;;;;;;241.80;128.13;;;;;14.10;98030.00;;;;5414903;26;20267;-87
2024/04/13 06:30:55;;;;;;;270.77;128.40;;;;;14.10;98018.00;;;;5418926;26;20233;-86
2024/04/13 06:33:46;;;;;;;292.57;138.03;;;;;14.00;98023.00;;;;5437779;26;20230;-86
2024/04/13 06:36:37;;;;;;;281.77;135.57;;;;;14.60;98022.00;;;;5426051;26;20350;-83
2024/04/13 06:39:27;;;;;;;305.33;143.37;;;;;15.10;98029.00;;;;5412742;26;20274;-84
2024/04/13 06:42:18;;;;;;;293.73;141.27;;;;;15.30;98027.00;;;;5429253;26;20761;-83
2024/04/13 06:45:07;;;;;;;301.67;140.00;;;;;15.40;98038.00;;;;5430575;26;20243;-84
2024/04/13 06:47:58;;;;;;;314.63;145.00;;;;;15.70;98039.00;;;;5433753;26;20644;-83
2024/04/13 06:50:49;;;;;;;315.43;151.33;;;;;16.40;98031.00;;;;5423453;26;20331;-83
2024/04/13 06:53:40;;;;;;;319.93;151.47;;;;;16.90;98030.00;;;;5425080;26;20838;-84
2024/04/13 06:56:29;;;;;;;350.77;160.90;;;;;17.20;98034.00;;;;5427006;26;20674;-83
2024/04/13 06:59:19;;;;;;;359.77;170.00;;;;;17.40;98029.00;;;;5439044;26;20229;-83
2024/04/13 07:02:08;;;;;;;359.03;166.20;;;;;17.50;98028.00;;;;5424179;26;20234;-84
2024/04/13 07:04:59;;;;;;;366.93;166.40;;;;;18.00;98036.00;;;;5436656;26;20296;-84
2024/04/13 07:07:50;;;;;;;380.50;175.40;;;;;18.50;98034.00;;;;5432368;26;20355;-83
2024/04/13 07:10:40;;;;;;;416.17;270.10;;;;;18.60;98037.00;;;;5429366;26;20293;-83
2024/04/13 07:13:33;;;;;;;412.43;233.03;;;;;18.90;98028.00;;;;5435899;26;20292;-84
2024/04/13 07:16:22;;;;;;;399.37;202.50;;;;;18.60;98033.00;;;;5441378;26;20768;-82
2024/04/13 07:19:12;;;;;;;396.40;227.80;;;;;19.10;98034.00;;;;5424827;26;20297;-83
2024/04/13 07:22:01;;;;;;;374.00;212.47;;;;;19.30;98029.00;;;;5434425;26;20297;-84
2024/04/13 07:24:55;;;;;;;385.70;208.50;;;;;19.80;98029.00;;;;5426864;26;20230;-83
2024/04/13 07:27:46;;;;;;;397.17;237.47;;;;;19.90;98032.00;;;;5430945;26;20236;-84
2024/04/13 07:30:34;;;;;;;393.57;230.60;;;;;20.10;98029.00;;;;5427540;26;20238;-83
2024/04/13 07:33:25;;;;;;;407.80;251.53;;;;;20.30;98023.00;;;;5431498;26;20230;-83
2024/04/13 07:36:13;;;;;;;381.77;231.97;;;;;20.50;98017.00;;;;5431322;26;20319;-84
2024/04/13 07:39:04;;;;;;;372.67;237.63;;;;;20.40;98014.00;;;;5430318;26;20333;-85
2024/04/13 07:41:55;;;;;;;382.70;237.17;;;;;20.80;98009.00;;;;5435258;26;20252;-83
2024/04/13 07:44:46;;;;;;;380.07;245.87;;;;;20.80;98016.00;;;;5430424;26;20729;-84
2024/04/13 07:47:34;;;;;;;393.87;252.60;;;;;21.30;98029.00;;;;5420963;26;20237;-84
2024/04/13 07:50:26;;;;;;;399.43;260.60;;;;;21.50;98022.00;;;;5437168;26;20304;-83
2024/04/13 07:53:15;;;;;;;394.77;264.63;;;;;21.60;98007.00;;;;5425672;26;20293;-83
2024/04/13 07:56:06;;;;;;;408.63;295.43;;;;;21.90;98013.00;;;;5434209;26;20244;-84
2024/04/13 07:58:58;;;;;;;391.37;276.23;;;;;22.10;98004.00;;;;5438502;26;20224;-84
2024/04/13 08:01:49;;;;;;;393.53;286.57;;;;;22.40;97997.00;;;;5429077;26;20283;-84
2024/04/13 08:04:37;;;;;;;394.77;294.43;;;;;22.60;98004.00;;;;5426998;26;20242;-84
2024/04/13 08:07:29;;;;;;;410.03;302.20;;;;;22.90;98007.00;;;;5433117;26;20319;-84
2024/04/13 08:10:21;;;;;;;405.93;307.10;;;;;23.00;97998.00;;;;5426919;26;20589;-84
2024/04/13 08:13:12;;;;;;;406.63;314.80;;;;;23.20;97998.00;;;;5424489;26;20245;-84
2024/04/13 08:16:06;;;;;;;401.00;310.83;;;;;23.50;97988.00;;;;5448965;26;20236;-83
2024/04/13 08:18:57;;;;;;;402.13;315.93;;;;;23.70;97994.00;;;;5441408;26;20309;-84
2024/04/13 08:21:46;;;;;;;409.80;332.87;;;;;23.80;97989.00;;;;5429576;26;20245;-84
2024/04/13 08:24:37;;;;;;;412.47;338.53;;;;;24.10;97988.00;;;;5433562;26;20236;-83
2024/04/13 08:27:25;;;;;;;427.20;351.10;;;;;24.20;97987.00;;;;5427656;26;20647;-84
2024/04/13 08:30:16;;;;;;;415.53;352.30;;;;;24.20;97990.00;;;;5432069;26;20229;-84
2024/04/13 08:33:08;;;;;;;415.73;357.57;;;;;24.60;97982.00;;;;5431189;26;20237;-84
2024/04/13 08:36:04;;;;;;;417.60;357.67;;;;;24.80;97979.00;;;;5436105;26;20237;-83
2024/04/13 08:38:55;;;;;;;417.33;363.47;;;;;25.10;97975.00;;;;5434165;26;20232;-83
2024/04/13 08:41:50;;;;;;;417.20;366.80;;;;;25.20;97968.00;;;;5430434;26;20307;-84
2024/04/13 08:44:42;;;;;;;429.33;382.03;;;;;25.40;97970.00;;;;5427679;26;20884;-84
2024/04/13 08:47:32;;;;;;;443.63;395.20;;;;;25.70;97964.00;;;;5428390;26;20234;-83
2024/04/13 08:50:27;;;;;;;449.63;400.73;;;;;25.80;97972.00;;;;5433103;26;20241;-84
2024/04/13 08:53:17;;;;;;;450.37;402.40;;;;;25.80;97972.00;;;;5434640;26;20228;-83
2024/04/13 08:56:08;;;;;;;447.37;399.83;;;;;26.10;97979.00;;;;5425517;26;20242;-84
2024/04/13 08:58:58;;;;;;;456.87;408.57;;;;;26.20;97974.00;;;;5417766;26;20245;-84
2024/04/13 09:01:51;;;;;;;460.03;412.13;;;;;26.30;97966.00;;;;5422161;26;20238;-84
2024/04/13 09:04:40;;;;;;;465.87;417.70;;;;;25.60;97970.00;;;;5413014;26;20302;-84
2024/04/13 09:07:34;;;;;;;474.70;425.67;;;;;26.20;97967.00;;;;5412876;26;20289;-84
2024/04/13 09:10:23;;;;;;;465.10;417.00;;;;;26.60;97964.00;;;;5410675;26;20246;-84
2024/04/13 09:13:14;;;;;;;472.33;424.30;;;;;26.80;97951.00;;;;5421973;26;20308;-84
2024/04/13 09:16:04;;;;;;;475.40;427.13;;;;;26.90;97961.00;;;;5419377;26;20653;-85
2024/04/13 09:18:55;;;;;;;469.33;421.87;;;;;27.20;97961.00;;;;5420711;26;20661;-85
2024/04/13 09:21:43;;;;;;;483.90;435.20;;;;;27.40;97951.00;;;;5439856;26;20246;-84
2024/04/13 09:24:44;;;;;;;490.63;441.50;;;;;27.30;97952.00;;;;5444124;26;20758;-84
2024/04/13 09:27:34;;;;;;;497.27;447.10;;;;;27.60;97949.00;;;;5442460;26;20297;-84
2024/04/13 09:30:26;;;;;;;499.47;450.57;;;;;27.40;97954.00;;;;5435000;26;20276;-83
2024/04/13 09:33:15;;;;;;;497.80;448.93;;;;;27.30;97947.00;;;;5441751;26;20238;-85
2024/04/13 09:36:06;;;;;;;504.80;455.67;;;;;27.70;97947.00;;;;5419092;26;20236;-85
2024/04/13 09:38:54;;;;;;;500.93;452.17;;;;;28.30;97937.00;;;;5428026;26;20574;-84
2024/04/13 09:41:48;;;;;;;508.03;458.73;;;;;28.70;97946.00;;;;5437897;26;20561;-86
2024/04/13 09:44:36;;;;;;;517.87;468.37;;;;;28.40;97947.00;;;;5429289;26;20278;-86
2024/04/13 09:47:27;;;;;;;525.93;475.67;;;;;28.70;97930.00;;;;5426357;26;20283;-85
2024/04/13 09:50:16;;;;;;;521.87;472.57;;;;;29.20;97941.00;;;;5419266;26;20633;-86
2024/04/13 09:53:07;;;;;;;529.20;479.23;;;;;28.10;97928.00;;;;5417965;26;20296;-84
2024/04/13 09:55:55;;;;;;;541.87;490.93;;;;;28.80;97927.00;;;;5423985;26;20279;-85
2024/04/13 09:58:49;;;;;;;540.37;490.50;;;;;29.10;97921.00;;;;5430945;26;20241;-85
2024/04/13 10:01:37;;;;;;;548.43;498.43;;;;;29.50;97925.00;;;;5428580;26;20253;-84
2024/04/13 10:04:28;;;;;;;554.93;504.30;;;;;29.40;97927.00;;;;5430362;26;20260;-84
2024/04/13 10:07:17;;;;;;;553.43;503.47;;;;;29.30;97909.00;;;;5428261;26;20820;-83
2024/04/13 10:10:13;;;;;;;556.70;506.80;;;;;29.10;97900.00;;;;5437917;26;20238;-84
2024/04/13 10:13:02;;;;;;;556.20;506.33;;;;;29.80;97902.00;;;;5426200;26;20245;-85
2024/04/13 10:15:56;;;;;;;562.83;512.40;;;;;30.00;97903.00;;;;5423860;26;20318;-84
2024/04/13 10:18:44;;;;;;;558.23;508.43;;;;;29.90;97904.00;;;;5428578;26;20246;-83
2024/04/13 10:21:37;;;;;;;569.93;519.37;;;;;29.70;97894.00;;;;5436987;26;20295;-84
2024/04/13 10:24:28;;;;;;;583.67;532.67;;;;;30.20;97885.00;;;;5425145;26;20680;-85
2024/04/13 10:27:24;;;;;;;581.83;532.13;;;;;28.90;97884.00;;;;5435235;26;20293;-84
2024/04/13 10:30:13;;;;;;;571.20;521.57;;;;;28.20;97867.00;;;;5418093;26;20281;-84
2024/04/13 10:33:06;;;;;;;571.70;522.07;;;;;28.70;97871.00;;;;5427762;26;20303;-83
2024/04/13 10:35:57;;;;;;;568.20;519.47;;;;;29.90;97870.00;;;;5435597;26;20295;-84
2024/04/13 10:38:57;;;;;;;569.60;520.43;;;;;28.70;97863.00;;;;5425981;26;20251;-84
2024/04/13 10:41:46;;;;;;;564.03;515.90;;;;;29.10;97860.00;;;;5429564;26;20296;-83
2024/04/13 10:44:36;;;;;;;566.53;518.57;;;;;29.70;97855.00;;;;5429992;26;20290;-84
2024/04/13 10:47:25;;;;;;;565.10;517.57;;;;;30.80;97851.00;;;;5427972;26;20235;-84
2024/04/13 10:50:19;;;;;;;564.40;517.37;;;;;31.20;97853.00;;;;5427590;26;20316;-84
2024/04/13 10:53:11;;;;;;;579.73;530.17;;;;;31.30;97846.00;;;;5432881;26;20320;-84
2024/04/13 10:56:02;;;;;;;588.77;539.40;;;;;31.40;97844.00;;;;5433694;26;20311;-84
2024/04/13 10:58:50;;;;;;;602.80;552.87;;;;;31.50;97829.00;;;;5427052;26;20252;-86
2024/04/13 11:01:44;;;;;;;614.07;563.57;;;;;30.60;97833.00;;;;5432540;26;20397;-84
2024/04/13 11:04:42;;;;;;;630.70;579.93;;;;;31.30;97833.00;;;;5437175;26;20311;-84
2024/04/13 11:07:36;;;;;;;646.47;594.03;;;;;32.00;97821.00;;;;5430475;21;20312;-67
2024/04/13 11:10:24;;;;;;;647.87;595.90;;;;;32.00;97817.00;;;;5422789;26;20298;-67
2024/04/13 11:13:15;;;;;;;651.73;600.43;;;;;32.00;97808.00;;;;5431709;26;20285;-67
2024/04/13 11:16:07;;;;;;;656.10;603.83;;;;;32.20;97809.00;;;;5433103;26;20759;-68
2024/04/13 11:18:58;;;;;;;672.20;619.23;;;;;32.00;97828.00;;;;5424777;26;20287;-67
2024/04/13 11:21:46;;;;;;;681.93;627.90;;;;;32.60;97805.00;;;;5430185;26;20240;-67
2024/04/13 11:24:40;;;;;;;687.37;633.70;;;;;31.50;97803.00;;;;5424008;26;20304;-67
2024/04/13 11:27:29;;;;;;;693.67;639.93;;;;;30.40;97807.00;;;;5422675;26;20644;-67
2024/04/13 11:30:20;;;;;;;678.30;627.00;;;;;30.80;97791.00;;;;5420341;26;20290;-67
2024/04/13 11:33:09;;;;;;;683.50;632.07;;;;;31.30;97800.00;;;;5424495;26;20652;-67
2024/04/13 11:36:00;;;;;;;679.73;628.53;;;;;32.20;97800.00;;;;5430014;26;20242;-68
2024/04/13 11:38:49;;;;;;;685.27;633.83;;;;;33.70;97798.00;;;;5415239;26;20282;-69
2024/04/13 11:41:42;;;;;;;698.92;645.95;;;;;33.90;97795.00;;;;5413146;26;20658;-68
2024/04/13 11:44:30;;;;;;;710.60;657.67;;;;;31.90;97796.00;;;;5417169;26;20249;-68
2024/04/13 11:47:21;;;;;;;714.70;660.88;;;;;33.50;97789.00;;;;5426496;26;20314;-68
2024/04/13 11:50:12;;;;;;;719.00;666.00;;;;;34.00;97783.00;;;;5424028;26;20577;-70
2024/04/13 11:53:01;;;;;;;733.67;679.80;;;;;34.20;97777.00;;;;5418607;26;20237;-71
2024/04/13 11:55:52;;;;;;;741.55;687.65;;;;;32.80;97757.00;;;;5419699;26;20299;-70
2024/04/13 11:58:53;;;;;;;743.72;689.65;;;;;31.80;97761.00;;;;5431714;26;20288;-70
2024/04/13 12:01:41;;;;;;;743.83;689.63;;;;;33.30;97760.00;;;;5426862;26;20396;-70
2024/04/13 12:04:32;;;;;;;753.72;698.58;;;;;34.50;97757.00;;;;5422495;26;20244;-69
2024/04/13 12:07:20;;;;;;;765.30;710.10;;;;;34.70;97748.00;;;;5449295;26;20315;-69
2024/04/13 12:10:11;;;;;;;763.80;709.13;;;;;35.00;97741.00;;;;5461448;26;20725;-70
2024/04/13 12:13:00;;;;;;;768.47;713.83;;;;;36.30;97740.00;;;;5453778;26;20294;-69
2024/04/13 12:15:53;;;;;;;783.38;728.58;;;;;35.60;97731.00;;;;5452865;26;20236;-69
2024/04/13 12:18:41;;;;;;;791.37;735.87;;;;;36.70;97724.00;;;;5471975;26;20295;-70
2024/04/13 12:21:32;;;;;;;801.63;745.78;;;;;36.70;97718.00;;;;5447959;26;20225;-70
2024/04/13 12:24:24;;;;;;;816.60;760.40;;;;;36.60;97724.00;;;;5448466;26;20271;-69
2024/04/13 12:27:12;;;;;;;823.97;767.43;;;;;36.80;97713.00;;;;5459451;26;20298;-69
2024/04/13 12:30:03;;;;;;;828.55;772.30;;;;;36.50;97715.00;;;;5445483;26;20193;-69
2024/04/13 12:33:03;;;;;;;841.97;785.63;;;;;36.90;97701.00;;;;5459406;26;20587;-69
2024/04/13 12:35:54;;;;;;;828.45;772.97;;;;;37.00;97692.00;;;;5444719;26;20268;-70
2024/04/13 12:38:46;;;;;;;841.63;785.47;;;;;38.10;97685.00;;;;5465859;26;20343;-70
2024/04/13 12:41:34;;;;;;;849.57;792.50;;;;;38.50;97691.00;;;;5451506;26;20713;-70
2024/04/13 12:44:28;;;;;;;;;;;;;37.50;97689.00;;;;5449652;26;19998;-70
2024/04/13 12:47:16;;;;;;;;;;;;;33.10;97674.00;;;;5453611;26;20429;-69
2024/04/13 12:50:10;;;;;;;858.05;801.00;;;;;31.90;97673.00;;;;5454669;26;20299;-68
2024/04/13 12:52:58;;;;;;;831.50;776.00;;;;;32.20;97664.00;;;;5454787;26;20275;-69
2024/04/13 12:55:49;;;;;;;817.47;761.70;;;;;35.10;97666.00;;;;5451655;26;20225;-69
2024/04/13 12:58:37;;;;;;;;;;;;;36.50;97664.00;;;;5455937;26;20034;-69
2024/04/13 13:01:28;;;;;;;;;;;;;35.90;97659.00;;;;5459913;26;19930;-69
2024/04/13 13:04:16;;;;;;;818.92;762.35;;;;;32.10;97646.00;;;;5454468;26;20287;-68
2024/04/13 13:07:10;;;;;;;813.42;757.38;;;;;31.30;97640.00;;;;5459411;26;20781;-65
2024/04/13 13:09:58;;;;;;;794.22;738.72;;;;;32.00;97647.00;;;;5454850;26;20330;-68
2024/04/13 13:12:49;;;;;;;781.92;726.85;;;;;32.50;97641.00;;;;5457489;26;20228;-69
2024/04/13 13:15:38;;;;;;;773.15;717.72;;;;;32.30;97637.00;;;;5452238;26;20831;-69
2024/04/13 13:18:29;;;;;;;770.33;714.80;;;;;33.00;97629.00;;;;5444189;26;20869;-68
2024/04/13 13:21:17;;;;;;;765.25;710.60;;;;;32.20;97617.00;;;;5452558;26;20337;-70
2024/04/13 13:24:11;;;;;;;760.17;705.72;;;;;32.10;97625.00;;;;5453520;26;20296;-68
2024/04/13 13:27:01;;;;;;;753.58;699.67;;;;;32.90;97617.00;;;;5451302;26;20236;-68
2024/04/13 13:29:52;;;;;;;769.05;714.20;;;;;34.30;97620.00;;;;5444313;26;20240;-68
2024/04/13 13:32:41;;;;;;;772.42;717.63;;;;;33.20;97616.00;;;;5463094;26;20307;-68
2024/04/13 13:35:32;;;;;;;779.53;724.03;;;;;33.40;97619.00;;;;5453892;26;20233;-69